Hampton, NE (68843)

7:11 AM CDT on July 23, 2014 (GMT -0500)
Aurora Municipal (KAUH) Elev 1804 ft | 40.89 °N, 97.99 °W | Change Station

Current weather conditions updated 16 minutes ago

Clear
Clear
63 °F
Feels Like 63 °F
N
0
Wind Variable Wind from North

Today is forecast to be Cooler than yesterday.

Today
High -- | Low -- °F
--% Chance of Precip.
Yesterday
High -- | Low -- °F
Precip. -- in
6:19 AM 8:56 PM
Waning Crescent, 11% visible
Pressure 30.29 in
Visibility 10.0 miles
Clouds Clear
Dew Point 62 °F
Humidity 98%
Rainfall 0.00 in
Snow Depth Not available.
UV 0 out of 12
Pollen 6.40 out of 12
Air Quality Not available.
Flu Activity Not available.
METAR KAUH 231155Z AUTO 00000KT 10SM CLR 17/17 A3029 RMK AO2 LTG DSNT S T01710168 10211 20170

More Conditions Fewer Conditions

Pressure 30.29 in
Visibility 10.0 miles
Clouds Clear
Dew Point 62 °F
Humidity 98%
Rainfall 0.00 in
Snow Depth Not available.
UV 0 out of 12
Pollen 6.40 out of 12
Air Quality Not available.
Flu Activity Not available.
METAR KAUH 231155Z AUTO 00000KT 10SM CLR 17/17 A3029 RMK AO2 LTG DSNT S T01710168 10211 20170

More Conditions Fewer Conditions

10-Day Weather Forecast

Almanac

Astronomy

Jul. 23, 2014 Rise Set
Actual Time 6:19 AM CDT 8:56 PM CDT
Civil Twilight 5:47 AM CDT 9:27 PM CDT
Nautical Twilight 5:08 AM CDT 10:07 PM CDT
Astronomical Twilight 4:23 AM CDT 10:51 PM CDT
Moon 3:39 AM CDT 6:25 PM CDT
Length of Visible Light 15h 39m
Length of Day
14h 36m
Tomorrow will be 1m 45s shorter.
Waning Crescent, 11% of the Moon is Illuminated
Today
Waning Crescent
Jul 26
New
Aug 3
First Quarter
Aug 10
Full
Aug 17
Last Quarter

Today's Extremes

State Highs State Lows

Community

WunderPhotos

Upload Photos

1,736,570 photos uploaded!

Nearby

Snow Depth

Station Depth Elevation
No new snow has been reported.

Earthquake Activity

City Distance Mag. Time & Date
No recent earthquake activity has been reported nearby.
Minimum magnitude displayed is 2.5.

Coastal Water Temperatures

Place Temperature
No Stations Reporting

Nearby Weather Stations

Station Location Temp. Dew Point Humidity Wind Precip. Elev Updated Type
Buller Spraying, inc., Henderson, NE 63.5 °F 61 °F 92% NW  at  0.0 mph 0.00 in / hr 1785 ft 7:10 AM CDT Normal
SLS - SW York, NE, York, NE 63.6 °F 60 °F 88% NNW  at  1.0 mph 0.00 in / hr 1647 ft 7:07 AM CDT Normal
MesoWest CENTL1 , Central City, NE 57 °F - - North  at  - 0.00 in / hr 1671 ft 6:00 AM CDT MADIS
Barr, Grand Island, NE 66.9 °F 62 °F 84% ESE  at  4.2 mph - / hr 1864 ft 7:05 AM CDT Normal
Riverside/Barr, Grand Island, NE 65.6 °F 61 °F 84% ENE  at  0.0 mph 0.00 in / hr 1856 ft 7:11 AM CDT Rapid Fire

Show More Stations Show Fewer Stations